X  Close Metar Aviation Weather Data     EHKD De Kooy Airport
Temperature
16°C Temperature
12°C Dewpoint
77% Humidity



Wind
27 KM/H
17 MPH
8 M/S
15 KTS



190°
S
Current Conditions

Partly Cloudy Partly Cloudy
Pressure 1004.06 (hPa) - 29.65 (inHg)
Visibility 6 (mile) - 9.7 (km)
Airport
Airport-code EHKD

Location: De Kooy Airport
Distance: 34 (km)

Metar:
EHKD 141230Z AUTO 19015KT 160V220 9999 FEW013 BKN016 OVC019 16/12 Q1004 WHT TEMPO 4500 -DZRA FEW008 SCT012

Time: 14-06-2024 14:30 CEST